sensor_id;sensor_type;location;lat;lon;timestamp;P1;durP1;ratioP1;P2;durP2;ratioP2
60969;SDS011;46841;48.938;9.502;2022-12-18T00:01:23;71.93;;;31.10;;
60969;SDS011;46841;48.938;9.502;2022-12-18T00:03:49;59.53;;;31.80;;
60969;SDS011;46841;48.938;9.502;2022-12-18T00:06:15;63.95;;;27.58;;
60969;SDS011;46841;48.938;9.502;2022-12-18T00:08:41;64.93;;;27.73;;
60969;SDS011;46841;48.938;9.502;2022-12-18T00:11:07;83.35;;;29.13;;
60969;SDS011;46841;48.938;9.502;2022-12-18T00:13:33;57.43;;;25.13;;
60969;SDS011;46841;48.938;9.502;2022-12-18T00:16:02;58.97;;;24.35;;
60969;SDS011;46841;48.938;9.502;2022-12-18T00:18:27;63.10;;;25.75;;
60969;SDS011;46841;48.938;9.502;2022-12-18T00:20:53;60.53;;;27.50;;
60969;SDS011;46841;48.938;9.502;2022-12-18T00:23:18;62.00;;;25.52;;
60969;SDS011;46841;48.938;9.502;2022-12-18T00:25:43;64.72;;;27.95;;
60969;SDS011;46841;48.938;9.502;2022-12-18T00:28:09;57.05;;;25.35;;
60969;SDS011;46841;48.938;9.502;2022-12-18T00:30:34;63.65;;;22.58;;
60969;SDS011;46841;48.938;9.502;2022-12-18T00:32:59;52.63;;;23.20;;
60969;SDS011;46841;48.938;9.502;2022-12-18T00:35:25;63.63;;;20.13;;
60969;SDS011;46841;48.938;9.502;2022-12-18T00:37:51;46.47;;;21.10;;
60969;SDS011;46841;48.938;9.502;2022-12-18T00:40:16;54.00;;;21.02;;
60969;SDS011;46841;48.938;9.502;2022-12-18T00:42:42;50.83;;;24.90;;
60969;SDS011;46841;48.938;9.502;2022-12-18T00:45:27;74.35;;;30.20;;
60969;SDS011;46841;48.938;9.502;2022-12-18T00:47:52;54.40;;;23.77;;
60969;SDS011;46841;48.938;9.502;2022-12-18T00:50:18;48.08;;;22.23;;
60969;SDS011;46841;48.938;9.502;2022-12-18T00:52:43;52.42;;;22.42;;
60969;SDS011;46841;48.938;9.502;2022-12-18T00:55:09;50.08;;;23.45;;
60969;SDS011;46841;48.938;9.502;2022-12-18T00:57:35;72.85;;;29.23;;
60969;SDS011;46841;48.938;9.502;2022-12-18T01:00:00;69.50;;;28.88;;
60969;SDS011;46841;48.938;9.502;2022-12-18T01:02:26;74.82;;;29.85;;
60969;SDS011;46841;48.938;9.502;2022-12-18T01:04:51;55.20;;;26.67;;
60969;SDS011;46841;48.938;9.502;2022-12-18T01:09:43;51.47;;;19.77;;
60969;SDS011;46841;48.938;9.502;2022-12-18T01:12:08;55.50;;;24.15;;
60969;SDS011;46841;48.938;9.502;2022-12-18T01:14:34;69.47;;;24.45;;
60969;SDS011;46841;48.938;9.502;2022-12-18T01:16:59;49.25;;;21.83;;
60969;SDS011;46841;48.938;9.502;2022-12-18T01:19:27;54.33;;;25.63;;
60969;SDS011;46841;48.938;9.502;2022-12-18T01:21:53;47.85;;;23.60;;
60969;SDS011;46841;48.938;9.502;2022-12-18T01:24:18;53.55;;;22.95;;
60969;SDS011;46841;48.938;9.502;2022-12-18T01:26:44;49.33;;;22.95;;
60969;SDS011;46841;48.938;9.502;2022-12-18T01:29:10;60.35;;;26.17;;
60969;SDS011;46841;48.938;9.502;2022-12-18T01:31:35;57.40;;;22.98;;
60969;SDS011;46841;48.938;9.502;2022-12-18T01:34:01;55.05;;;24.17;;
60969;SDS011;46841;48.938;9.502;2022-12-18T01:36:28;57.45;;;25.77;;
60969;SDS011;46841;48.938;9.502;2022-12-18T01:38:54;60.47;;;25.50;;
60969;SDS011;46841;48.938;9.502;2022-12-18T01:41:21;57.47;;;24.42;;
60969;SDS011;46841;48.938;9.502;2022-12-18T01:46:15;48.28;;;21.08;;
60969;SDS011;46841;48.938;9.502;2022-12-18T01:48:41;43.47;;;21.53;;
60969;SDS011;46841;48.938;9.502;2022-12-18T01:51:08;51.85;;;20.13;;
60969;SDS011;46841;48.938;9.502;2022-12-18T01:53:34;59.53;;;22.10;;
60969;SDS011;46841;48.938;9.502;2022-12-18T01:56:00;45.13;;;20.13;;
60969;SDS011;46841;48.938;9.502;2022-12-18T01:58:29;38.97;;;17.98;;
60969;SDS011;46841;48.938;9.502;2022-12-18T02:00:55;52.85;;;21.70;;
60969;SDS011;46841;48.938;9.502;2022-12-18T02:03:21;45.83;;;20.30;;
60969;SDS011;46841;48.938;9.502;2022-12-18T02:06:29;60.92;;;23.13;;
60969;SDS011;46841;48.938;9.502;2022-12-18T02:11:27;60.90;;;23.88;;
60969;SDS011;46841;48.938;9.502;2022-12-18T02:19:06;48.08;;;20.95;;
60969;SDS011;46841;48.938;9.502;2022-12-18T02:21:51;44.65;;;23.30;;
60969;SDS011;46841;48.938;9.502;2022-12-18T02:26:58;37.95;;;18.88;;
60969;SDS011;46841;48.938;9.502;2022-12-18T02:29:32;45.33;;;18.58;;
60969;SDS011;46841;48.938;9.502;2022-12-18T02:32:00;44.42;;;21.55;;
60969;SDS011;46841;48.938;9.502;2022-12-18T02:34:28;48.65;;;23.10;;
60969;SDS011;46841;48.938;9.502;2022-12-18T02:36:54;49.33;;;21.73;;
60969;SDS011;46841;48.938;9.502;2022-12-18T02:39:20;58.95;;;26.00;;
60969;SDS011;46841;48.938;9.502;2022-12-18T02:41:56;48.40;;;23.30;;
60969;SDS011;46841;48.938;9.502;2022-12-18T02:46:49;25.67;;;14.87;;
60969;SDS011;46841;48.938;9.502;2022-12-18T02:57:13;62.95;;;25.70;;
60969;SDS011;46841;48.938;9.502;2022-12-18T02:59:41;60.65;;;25.15;;
60969;SDS011;46841;48.938;9.502;2022-12-18T03:02:17;57.58;;;27.42;;
60969;SDS011;46841;48.938;9.502;2022-12-18T03:04:49;56.97;;;25.85;;
60969;SDS011;46841;48.938;9.502;2022-12-18T03:07:18;53.95;;;25.77;;
60969;SDS011;46841;48.938;9.502;2022-12-18T03:09:47;50.65;;;22.95;;
60969;SDS011;46841;48.938;9.502;2022-12-18T03:12:21;45.47;;;22.48;;
60969;SDS011;46841;48.938;9.502;2022-12-18T03:14:54;43.13;;;21.65;;
60969;SDS011;46841;48.938;9.502;2022-12-18T03:17:22;45.38;;;19.85;;
60969;SDS011;46841;48.938;9.502;2022-12-18T03:19:47;55.75;;;21.40;;
60969;SDS011;46841;48.938;9.502;2022-12-18T03:22:14;40.28;;;18.08;;
60969;SDS011;46841;48.938;9.502;2022-12-18T03:24:46;39.05;;;19.50;;
60969;SDS011;46841;48.938;9.502;2022-12-18T03:27:14;42.00;;;19.17;;
60969;SDS011;46841;48.938;9.502;2022-12-18T03:29:44;44.55;;;21.08;;
60969;SDS011;46841;48.938;9.502;2022-12-18T03:32:15;54.22;;;22.63;;
60969;SDS011;46841;48.938;9.502;2022-12-18T03:34:42;51.17;;;22.55;;
60969;SDS011;46841;48.938;9.502;2022-12-18T03:37:11;47.00;;;20.63;;
60969;SDS011;46841;48.938;9.502;2022-12-18T03:39:37;54.50;;;22.88;;
60969;SDS011;46841;48.938;9.502;2022-12-18T03:42:17;67.43;;;25.03;;
60969;SDS011;46841;48.938;9.502;2022-12-18T03:44:53;62.97;;;24.35;;
60969;SDS011;46841;48.938;9.502;2022-12-18T03:47:36;56.03;;;25.40;;
60969;SDS011;46841;48.938;9.502;2022-12-18T03:52:36;50.63;;;25.35;;
60969;SDS011;46841;48.938;9.502;2022-12-18T03:55:04;53.78;;;24.98;;
60969;SDS011;46841;48.938;9.502;2022-12-18T03:57:31;63.15;;;25.63;;
60969;SDS011;46841;48.938;9.502;2022-12-18T03:59:58;56.75;;;24.80;;
60969;SDS011;46841;48.938;9.502;2022-12-18T04:02:28;54.83;;;26.55;;
60969;SDS011;46841;48.938;9.502;2022-12-18T04:04:58;67.18;;;26.95;;
60969;SDS011;46841;48.938;9.502;2022-12-18T04:07:25;46.47;;;23.80;;
60969;SDS011;46841;48.938;9.502;2022-12-18T04:09:51;45.83;;;25.45;;
60969;SDS011;46841;48.938;9.502;2022-12-18T04:12:25;57.70;;;20.45;;
60969;SDS011;46841;48.938;9.502;2022-12-18T04:14:51;60.10;;;24.33;;
60969;SDS011;46841;48.938;9.502;2022-12-18T04:17:17;65.00;;;28.38;;
60969;SDS011;46841;48.938;9.502;2022-12-18T04:19:42;49.05;;;22.60;;
60969;SDS011;46841;48.938;9.502;2022-12-18T04:22:09;48.13;;;23.23;;
60969;SDS011;46841;48.938;9.502;2022-12-18T04:24:40;45.10;;;19.77;;
60969;SDS011;46841;48.938;9.502;2022-12-18T04:27:13;50.40;;;23.75;;
60969;SDS011;46841;48.938;9.502;2022-12-18T04:29:42;48.92;;;23.23;;
60969;SDS011;46841;48.938;9.502;2022-12-18T04:32:09;48.65;;;22.15;;
60969;SDS011;46841;48.938;9.502;2022-12-18T04:34:35;56.13;;;23.65;;
60969;SDS011;46841;48.938;9.502;2022-12-18T04:37:01;56.03;;;20.60;;
60969;SDS011;46841;48.938;9.502;2022-12-18T04:39:26;54.42;;;21.48;;
60969;SDS011;46841;48.938;9.502;2022-12-18T04:41:56;38.30;;;18.92;;
60969;SDS011;46841;48.938;9.502;2022-12-18T04:44:24;40.40;;;19.88;;
60969;SDS011;46841;48.938;9.502;2022-12-18T04:46:50;56.42;;;22.15;;
60969;SDS011;46841;48.938;9.502;2022-12-18T04:49:15;57.80;;;21.60;;
60969;SDS011;46841;48.938;9.502;2022-12-18T04:51:40;41.47;;;23.00;;
60969;SDS011;46841;48.938;9.502;2022-12-18T04:54:06;39.42;;;20.70;;
60969;SDS011;46841;48.938;9.502;2022-12-18T04:56:31;51.75;;;23.27;;
60969;SDS011;46841;48.938;9.502;2022-12-18T04:58:56;47.80;;;23.23;;
60969;SDS011;46841;48.938;9.502;2022-12-18T05:01:22;56.65;;;25.38;;
60969;SDS011;46841;48.938;9.502;2022-12-18T05:03:47;53.78;;;22.45;;
60969;SDS011;46841;48.938;9.502;2022-12-18T05:06:13;70.00;;;27.73;;
60969;SDS011;46841;48.938;9.502;2022-12-18T05:08:38;51.08;;;23.25;;
60969;SDS011;46841;48.938;9.502;2022-12-18T05:11:05;52.42;;;24.38;;
60969;SDS011;46841;48.938;9.502;2022-12-18T05:13:31;59.22;;;22.00;;
60969;SDS011;46841;48.938;9.502;2022-12-18T05:15:56;55.25;;;23.67;;
60969;SDS011;46841;48.938;9.502;2022-12-18T05:18:22;42.53;;;23.05;;
60969;SDS011;46841;48.938;9.502;2022-12-18T05:20:47;50.83;;;23.75;;
60969;SDS011;46841;48.938;9.502;2022-12-18T05:23:13;42.70;;;20.33;;
60969;SDS011;46841;48.938;9.502;2022-12-18T05:25:39;47.92;;;22.33;;
60969;SDS011;46841;48.938;9.502;2022-12-18T05:28:04;46.95;;;20.55;;
60969;SDS011;46841;48.938;9.502;2022-12-18T05:30:29;40.67;;;21.58;;
60969;SDS011;46841;48.938;9.502;2022-12-18T05:32:55;51.92;;;20.75;;
60969;SDS011;46841;48.938;9.502;2022-12-18T05:35:21;55.65;;;22.95;;
60969;SDS011;46841;48.938;9.502;2022-12-18T05:37:46;67.03;;;26.07;;
60969;SDS011;46841;48.938;9.502;2022-12-18T05:40:11;52.85;;;22.08;;
60969;SDS011;46841;48.938;9.502;2022-12-18T05:42:37;41.13;;;17.83;;
60969;SDS011;46841;48.938;9.502;2022-12-18T05:45:03;50.00;;;21.52;;
60969;SDS011;46841;48.938;9.502;2022-12-18T05:47:28;45.15;;;21.80;;
60969;SDS011;46841;48.938;9.502;2022-12-18T05:49:54;61.53;;;23.95;;
60969;SDS011;46841;48.938;9.502;2022-12-18T05:52:19;69.35;;;27.60;;
60969;SDS011;46841;48.938;9.502;2022-12-18T05:54:44;45.40;;;20.60;;
60969;SDS011;46841;48.938;9.502;2022-12-18T05:57:10;43.33;;;20.17;;
60969;SDS011;46841;48.938;9.502;2022-12-18T05:59:35;44.10;;;19.95;;
60969;SDS011;46841;48.938;9.502;2022-12-18T06:02:00;40.22;;;19.27;;
60969;SDS011;46841;48.938;9.502;2022-12-18T06:04:26;48.10;;;19.33;;
60969;SDS011;46841;48.938;9.502;2022-12-18T06:06:55;53.92;;;21.95;;
60969;SDS011;46841;48.938;9.502;2022-12-18T06:09:21;45.17;;;19.63;;
60969;SDS011;46841;48.938;9.502;2022-12-18T06:11:46;59.00;;;21.02;;
60969;SDS011;46841;48.938;9.502;2022-12-18T06:14:11;60.20;;;22.05;;
60969;SDS011;46841;48.938;9.502;2022-12-18T06:16:37;46.40;;;19.05;;
60969;SDS011;46841;48.938;9.502;2022-12-18T06:19:03;51.00;;;19.65;;
60969;SDS011;46841;48.938;9.502;2022-12-18T06:21:29;51.50;;;18.37;;
60969;SDS011;46841;48.938;9.502;2022-12-18T06:23:54;46.80;;;18.38;;
60969;SDS011;46841;48.938;9.502;2022-12-18T06:26:19;43.17;;;18.05;;
60969;SDS011;46841;48.938;9.502;2022-12-18T06:28:45;40.45;;;20.50;;
60969;SDS011;46841;48.938;9.502;2022-12-18T06:31:10;44.80;;;19.00;;
60969;SDS011;46841;48.938;9.502;2022-12-18T06:33:36;50.22;;;17.70;;
60969;SDS011;46841;48.938;9.502;2022-12-18T06:36:03;55.65;;;19.42;;
60969;SDS011;46841;48.938;9.502;2022-12-18T06:38:28;45.15;;;20.15;;
60969;SDS011;46841;48.938;9.502;2022-12-18T06:40:54;52.35;;;20.80;;
60969;SDS011;46841;48.938;9.502;2022-12-18T06:43:19;42.45;;;20.08;;
60969;SDS011;46841;48.938;9.502;2022-12-18T06:45:44;45.50;;;16.77;;
60969;SDS011;46841;48.938;9.502;2022-12-18T06:48:11;43.72;;;18.13;;
60969;SDS011;46841;48.938;9.502;2022-12-18T06:50:36;44.83;;;18.88;;
60969;SDS011;46841;48.938;9.502;2022-12-18T06:53:01;57.25;;;20.52;;
60969;SDS011;46841;48.938;9.502;2022-12-18T06:55:27;45.90;;;19.45;;
60969;SDS011;46841;48.938;9.502;2022-12-18T06:57:52;56.72;;;22.20;;
60969;SDS011;46841;48.938;9.502;2022-12-18T07:00:17;48.85;;;20.35;;
60969;SDS011;46841;48.938;9.502;2022-12-18T07:02:43;53.55;;;18.52;;
60969;SDS011;46841;48.938;9.502;2022-12-18T07:05:08;47.83;;;20.30;;
60969;SDS011;46841;48.938;9.502;2022-12-18T07:07:34;38.28;;;16.90;;
60969;SDS011;46841;48.938;9.502;2022-12-18T07:09:59;47.72;;;18.90;;
60969;SDS011;46841;48.938;9.502;2022-12-18T07:12:26;39.40;;;18.30;;
60969;SDS011;46841;48.938;9.502;2022-12-18T07:14:51;55.45;;;18.67;;
60969;SDS011;46841;48.938;9.502;2022-12-18T07:17:17;50.83;;;19.17;;
60969;SDS011;46841;48.938;9.502;2022-12-18T07:19:42;46.33;;;19.75;;
60969;SDS011;46841;48.938;9.502;2022-12-18T07:22:07;55.80;;;19.67;;
60969;SDS011;46841;48.938;9.502;2022-12-18T07:24:33;50.38;;;18.60;;
60969;SDS011;46841;48.938;9.502;2022-12-18T07:26:59;53.20;;;21.35;;
60969;SDS011;46841;48.938;9.502;2022-12-18T07:29:24;46.17;;;19.25;;
60969;SDS011;46841;48.938;9.502;2022-12-18T07:31:50;40.85;;;17.70;;
60969;SDS011;46841;48.938;9.502;2022-12-18T07:34:16;64.95;;;22.70;;
60969;SDS011;46841;48.938;9.502;2022-12-18T07:36:41;112.10;;;33.40;;
60969;SDS011;46841;48.938;9.502;2022-12-18T07:39:07;182.77;;;53.63;;
60969;SDS011;46841;48.938;9.502;2022-12-18T07:41:32;231.18;;;55.67;;
60969;SDS011;46841;48.938;9.502;2022-12-18T07:44:08;185.80;;;51.42;;
60969;SDS011;46841;48.938;9.502;2022-12-18T07:46:33;178.77;;;45.88;;
60969;SDS011;46841;48.938;9.502;2022-12-18T07:48:59;130.57;;;43.67;;
60969;SDS011;46841;48.938;9.502;2022-12-18T07:51:24;101.32;;;39.20;;
60969;SDS011;46841;48.938;9.502;2022-12-18T07:53:50;74.85;;;27.80;;
60969;SDS011;46841;48.938;9.502;2022-12-18T07:56:15;68.85;;;25.75;;
60969;SDS011;46841;48.938;9.502;2022-12-18T07:58:40;52.25;;;22.17;;
60969;SDS011;46841;48.938;9.502;2022-12-18T08:01:06;60.10;;;23.20;;
60969;SDS011;46841;48.938;9.502;2022-12-18T08:03:32;58.15;;;22.77;;
60969;SDS011;46841;48.938;9.502;2022-12-18T08:05:58;65.82;;;27.45;;
60969;SDS011;46841;48.938;9.502;2022-12-18T08:08:24;60.25;;;26.05;;
60969;SDS011;46841;48.938;9.502;2022-12-18T08:10:49;52.78;;;23.23;;
60969;SDS011;46841;48.938;9.502;2022-12-18T08:13:14;54.22;;;19.92;;
60969;SDS011;46841;48.938;9.502;2022-12-18T08:15:39;67.93;;;23.23;;
60969;SDS011;46841;48.938;9.502;2022-12-18T08:18:05;73.22;;;25.52;;
60969;SDS011;46841;48.938;9.502;2022-12-18T08:20:30;59.45;;;21.52;;
60969;SDS011;46841;48.938;9.502;2022-12-18T08:22:55;65.03;;;21.73;;
60969;SDS011;46841;48.938;9.502;2022-12-18T08:25:23;62.35;;;22.73;;
60969;SDS011;46841;48.938;9.502;2022-12-18T08:27:48;59.22;;;23.23;;
60969;SDS011;46841;48.938;9.502;2022-12-18T08:30:13;65.13;;;21.33;;
60969;SDS011;46841;48.938;9.502;2022-12-18T08:32:39;73.85;;;24.40;;
60969;SDS011;46841;48.938;9.502;2022-12-18T08:35:04;63.30;;;22.88;;
60969;SDS011;46841;48.938;9.502;2022-12-18T08:37:29;88.25;;;26.58;;
60969;SDS011;46841;48.938;9.502;2022-12-18T08:39:55;82.20;;;25.50;;
60969;SDS011;46841;48.938;9.502;2022-12-18T08:42:20;77.43;;;24.50;;
60969;SDS011;46841;48.938;9.502;2022-12-18T08:45:04;72.97;;;25.40;;
60969;SDS011;46841;48.938;9.502;2022-12-18T08:47:30;69.15;;;23.80;;
60969;SDS011;46841;48.938;9.502;2022-12-18T08:49:55;93.75;;;39.53;;
60969;SDS011;46841;48.938;9.502;2022-12-18T08:52:20;94.15;;;37.45;;
60969;SDS011;46841;48.938;9.502;2022-12-18T08:54:46;88.10;;;30.73;;
60969;SDS011;46841;48.938;9.502;2022-12-18T08:57:11;79.15;;;29.58;;
60969;SDS011;46841;48.938;9.502;2022-12-18T08:59:36;85.50;;;31.15;;
60969;SDS011;46841;48.938;9.502;2022-12-18T09:02:02;85.90;;;30.42;;
60969;SDS011;46841;48.938;9.502;2022-12-18T09:04:27;85.30;;;30.25;;
60969;SDS011;46841;48.938;9.502;2022-12-18T09:06:52;83.75;;;28.25;;
60969;SDS011;46841;48.938;9.502;2022-12-18T09:09:21;86.28;;;28.33;;
60969;SDS011;46841;48.938;9.502;2022-12-18T09:11:46;78.60;;;26.33;;
60969;SDS011;46841;48.938;9.502;2022-12-18T09:14:11;76.88;;;26.92;;
60969;SDS011;46841;48.938;9.502;2022-12-18T09:16:37;72.82;;;26.77;;
60969;SDS011;46841;48.938;9.502;2022-12-18T09:19:03;70.72;;;25.05;;
60969;SDS011;46841;48.938;9.502;2022-12-18T09:21:30;80.00;;;26.63;;
60969;SDS011;46841;48.938;9.502;2022-12-18T09:23:56;76.70;;;26.77;;
60969;SDS011;46841;48.938;9.502;2022-12-18T09:26:22;85.88;;;26.70;;
60969;SDS011;46841;48.938;9.502;2022-12-18T09:28:47;82.25;;;27.85;;
60969;SDS011;46841;48.938;9.502;2022-12-18T09:31:13;70.38;;;25.55;;
60969;SDS011;46841;48.938;9.502;2022-12-18T09:33:41;83.82;;;26.88;;
60969;SDS011;46841;48.938;9.502;2022-12-18T09:36:07;86.25;;;30.27;;
60969;SDS011;46841;48.938;9.502;2022-12-18T09:38:33;83.18;;;27.52;;
60969;SDS011;46841;48.938;9.502;2022-12-18T09:41:06;68.22;;;23.08;;
60969;SDS011;46841;48.938;9.502;2022-12-18T09:43:42;67.00;;;23.88;;
60969;SDS011;46841;48.938;9.502;2022-12-18T09:48:35;82.80;;;25.03;;
60969;SDS011;46841;48.938;9.502;2022-12-18T09:51:44;71.53;;;24.58;;
60969;SDS011;46841;48.938;9.502;2022-12-18T09:53:51;86.03;;;28.80;;
60969;SDS011;46841;48.938;9.502;2022-12-18T09:56:18;89.18;;;33.97;;
60969;SDS011;46841;48.938;9.502;2022-12-18T09:58:50;77.43;;;25.38;;
60969;SDS011;46841;48.938;9.502;2022-12-18T10:01:19;69.38;;;23.17;;
60969;SDS011;46841;48.938;9.502;2022-12-18T10:03:45;89.53;;;29.05;;
60969;SDS011;46841;48.938;9.502;2022-12-18T10:08:54;74.50;;;24.13;;
60969;SDS011;46841;48.938;9.502;2022-12-18T10:13:57;78.22;;;23.42;;
60969;SDS011;46841;48.938;9.502;2022-12-18T10:21:28;71.30;;;21.10;;
60969;SDS011;46841;48.938;9.502;2022-12-18T10:26:22;68.18;;;21.30;;
60969;SDS011;46841;48.938;9.502;2022-12-18T10:28:47;62.47;;;21.30;;
60969;SDS011;46841;48.938;9.502;2022-12-18T10:31:16;76.75;;;23.60;;
60969;SDS011;46841;48.938;9.502;2022-12-18T10:33:42;65.65;;;21.25;;
60969;SDS011;46841;48.938;9.502;2022-12-18T10:36:07;66.85;;;22.45;;
60969;SDS011;46841;48.938;9.502;2022-12-18T10:38:32;67.90;;;22.65;;
60969;SDS011;46841;48.938;9.502;2022-12-18T10:43:25;73.05;;;22.67;;
60969;SDS011;46841;48.938;9.502;2022-12-18T10:46:12;67.70;;;23.17;;
60969;SDS011;46841;48.938;9.502;2022-12-18T10:48:40;68.20;;;22.75;;
60969;SDS011;46841;48.938;9.502;2022-12-18T10:51:19;69.28;;;23.92;;
60969;SDS011;46841;48.938;9.502;2022-12-18T10:53:50;66.28;;;22.15;;
60969;SDS011;46841;48.938;9.502;2022-12-18T10:56:16;58.58;;;20.20;;
60969;SDS011;46841;48.938;9.502;2022-12-18T10:58:45;66.15;;;22.10;;
60969;SDS011;46841;48.938;9.502;2022-12-18T11:01:20;60.72;;;21.98;;
60969;SDS011;46841;48.938;9.502;2022-12-18T11:08:36;61.97;;;21.90;;
60969;SDS011;46841;48.938;9.502;2022-12-18T11:11:02;61.05;;;23.13;;
60969;SDS011;46841;48.938;9.502;2022-12-18T11:13:28;61.63;;;21.13;;
60969;SDS011;46841;48.938;9.502;2022-12-18T11:15:54;67.13;;;23.45;;
60969;SDS011;46841;48.938;9.502;2022-12-18T11:20:58;63.97;;;22.65;;
60969;SDS011;46841;48.938;9.502;2022-12-18T11:23:25;62.70;;;22.20;;
60969;SDS011;46841;48.938;9.502;2022-12-18T11:25:58;66.38;;;21.30;;
60969;SDS011;46841;48.938;9.502;2022-12-18T11:33:35;66.15;;;22.95;;
60969;SDS011;46841;48.938;9.502;2022-12-18T11:36:02;66.10;;;23.55;;
60969;SDS011;46841;48.938;9.502;2022-12-18T11:38:38;54.65;;;21.05;;
60969;SDS011;46841;48.938;9.502;2022-12-18T11:41:24;54.97;;;23.90;;
60969;SDS011;46841;48.938;9.502;2022-12-18T11:44:25;53.78;;;22.05;;
60969;SDS011;46841;48.938;9.502;2022-12-18T11:46:52;54.30;;;23.02;;
60969;SDS011;46841;48.938;9.502;2022-12-18T11:49:22;56.17;;;24.08;;
60969;SDS011;46841;48.938;9.502;2022-12-18T11:54:15;57.90;;;25.02;;
60969;SDS011;46841;48.938;9.502;2022-12-18T11:56:46;55.10;;;23.70;;
60969;SDS011;46841;48.938;9.502;2022-12-18T12:01:52;57.05;;;23.98;;
60969;SDS011;46841;48.938;9.502;2022-12-18T12:22:21;53.60;;;22.42;;
60969;SDS011;46841;48.938;9.502;2022-12-18T12:27:41;56.53;;;24.42;;
60969;SDS011;46841;48.938;9.502;2022-12-18T12:30:13;48.67;;;22.02;;
60969;SDS011;46841;48.938;9.502;2022-12-18T12:32:58;53.67;;;22.73;;
60969;SDS011;46841;48.938;9.502;2022-12-18T12:38:11;48.95;;;21.98;;
60969;SDS011;46841;48.938;9.502;2022-12-18T12:40:44;47.97;;;21.13;;
60969;SDS011;46841;48.938;9.502;2022-12-18T12:46:03;49.33;;;22.13;;
60969;SDS011;46841;48.938;9.502;2022-12-18T12:48:40;47.15;;;20.88;;
60969;SDS011;46841;48.938;9.502;2022-12-18T12:53:32;47.23;;;21.60;;
60969;SDS011;46841;48.938;9.502;2022-12-18T12:56:00;50.00;;;22.20;;
60969;SDS011;46841;48.938;9.502;2022-12-18T12:58:29;51.33;;;22.90;;
60969;SDS011;46841;48.938;9.502;2022-12-18T13:06:05;47.30;;;22.83;;
60969;SDS011;46841;48.938;9.502;2022-12-18T13:08:50;47.53;;;21.65;;
60969;SDS011;46841;48.938;9.502;2022-12-18T13:14:34;51.45;;;22.77;;
60969;SDS011;46841;48.938;9.502;2022-12-18T13:19:44;48.63;;;21.83;;
60969;SDS011;46841;48.938;9.502;2022-12-18T13:22:20;55.08;;;22.35;;
60969;SDS011;46841;48.938;9.502;2022-12-18T13:24:46;52.57;;;22.37;;
60969;SDS011;46841;48.938;9.502;2022-12-18T13:29:55;49.13;;;21.50;;
60969;SDS011;46841;48.938;9.502;2022-12-18T13:32:21;49.88;;;20.33;;
60969;SDS011;46841;48.938;9.502;2022-12-18T13:34:47;50.58;;;22.17;;
60969;SDS011;46841;48.938;9.502;2022-12-18T13:39:56;46.17;;;20.13;;
60969;SDS011;46841;48.938;9.502;2022-12-18T13:42:32;47.42;;;20.85;;
60969;SDS011;46841;48.938;9.502;2022-12-18T13:45:35;51.40;;;21.27;;
60969;SDS011;46841;48.938;9.502;2022-12-18T13:48:02;48.53;;;19.92;;
60969;SDS011;46841;48.938;9.502;2022-12-18T13:50:27;53.28;;;21.27;;
60969;SDS011;46841;48.938;9.502;2022-12-18T13:52:53;46.58;;;20.42;;
60969;SDS011;46841;48.938;9.502;2022-12-18T13:55:19;48.65;;;19.92;;
60969;SDS011;46841;48.938;9.502;2022-12-18T13:57:44;47.65;;;20.80;;
60969;SDS011;46841;48.938;9.502;2022-12-18T14:00:27;49.30;;;20.47;;
60969;SDS011;46841;48.938;9.502;2022-12-18T14:02:54;50.35;;;20.92;;
60969;SDS011;46841;48.938;9.502;2022-12-18T14:05:26;48.72;;;20.50;;
60969;SDS011;46841;48.938;9.502;2022-12-18T14:07:52;48.58;;;20.25;;
60969;SDS011;46841;48.938;9.502;2022-12-18T14:10:18;49.22;;;20.05;;
60969;SDS011;46841;48.938;9.502;2022-12-18T14:12:45;57.33;;;22.13;;
60969;SDS011;46841;48.938;9.502;2022-12-18T14:17:55;51.45;;;21.63;;
60969;SDS011;46841;48.938;9.502;2022-12-18T14:20:22;50.55;;;20.75;;
60969;SDS011;46841;48.938;9.502;2022-12-18T14:22:58;48.78;;;21.30;;
60969;SDS011;46841;48.938;9.502;2022-12-18T14:25:24;52.03;;;22.15;;
60969;SDS011;46841;48.938;9.502;2022-12-18T14:27:52;55.22;;;21.48;;
60969;SDS011;46841;48.938;9.502;2022-12-18T14:30:25;57.22;;;23.25;;
60969;SDS011;46841;48.938;9.502;2022-12-18T14:35:28;49.67;;;20.95;;
60969;SDS011;46841;48.938;9.502;2022-12-18T14:37:53;47.75;;;19.98;;
60969;SDS011;46841;48.938;9.502;2022-12-18T14:40:18;55.03;;;21.50;;
60969;SDS011;46841;48.938;9.502;2022-12-18T14:42:44;53.20;;;21.42;;
60969;SDS011;46841;48.938;9.502;2022-12-18T14:47:53;50.90;;;19.85;;
60969;SDS011;46841;48.938;9.502;2022-12-18T14:50:19;54.42;;;20.95;;
60969;SDS011;46841;48.938;9.502;2022-12-18T14:52:44;57.95;;;22.50;;
60969;SDS011;46841;48.938;9.502;2022-12-18T14:55:19;61.70;;;23.20;;
60969;SDS011;46841;48.938;9.502;2022-12-18T14:57:45;53.10;;;20.73;;
60969;SDS011;46841;48.938;9.502;2022-12-18T15:00:21;54.38;;;21.33;;
60969;SDS011;46841;48.938;9.502;2022-12-18T15:02:47;50.53;;;20.45;;
60969;SDS011;46841;48.938;9.502;2022-12-18T15:07:40;58.92;;;22.40;;
60969;SDS011;46841;48.938;9.502;2022-12-18T15:10:19;55.90;;;23.35;;
60969;SDS011;46841;48.938;9.502;2022-12-18T15:12:49;49.05;;;19.23;;
60969;SDS011;46841;48.938;9.502;2022-12-18T15:15:43;56.40;;;21.33;;
60969;SDS011;46841;48.938;9.502;2022-12-18T15:20:44;47.95;;;19.27;;
60969;SDS011;46841;48.938;9.502;2022-12-18T15:23:20;48.17;;;19.60;;
60969;SDS011;46841;48.938;9.502;2022-12-18T15:25:47;53.25;;;21.15;;
60969;SDS011;46841;48.938;9.502;2022-12-18T15:28:21;50.45;;;19.30;;
60969;SDS011;46841;48.938;9.502;2022-12-18T15:31:01;52.72;;;19.73;;
60969;SDS011;46841;48.938;9.502;2022-12-18T15:33:29;56.40;;;20.67;;
60969;SDS011;46841;48.938;9.502;2022-12-18T15:35:56;49.17;;;21.25;;
60969;SDS011;46841;48.938;9.502;2022-12-18T15:38:21;53.63;;;20.67;;
60969;SDS011;46841;48.938;9.502;2022-12-18T15:40:47;49.17;;;18.90;;
60969;SDS011;46841;48.938;9.502;2022-12-18T15:43:12;57.03;;;22.08;;
60969;SDS011;46841;48.938;9.502;2022-12-18T15:45:56;49.25;;;18.80;;
60969;SDS011;46841;48.938;9.502;2022-12-18T15:48:22;51.58;;;17.70;;
60969;SDS011;46841;48.938;9.502;2022-12-18T15:50:48;54.10;;;18.90;;
60969;SDS011;46841;48.938;9.502;2022-12-18T15:53:14;56.25;;;19.65;;
60969;SDS011;46841;48.938;9.502;2022-12-18T15:55:40;46.33;;;17.73;;
60969;SDS011;46841;48.938;9.502;2022-12-18T15:58:24;58.65;;;19.90;;
60969;SDS011;46841;48.938;9.502;2022-12-18T16:00:49;48.13;;;18.90;;
60969;SDS011;46841;48.938;9.502;2022-12-18T16:03:14;69.50;;;21.48;;
60969;SDS011;46841;48.938;9.502;2022-12-18T16:05:40;58.58;;;20.58;;
60969;SDS011;46841;48.938;9.502;2022-12-18T16:08:05;68.22;;;24.35;;
60969;SDS011;46841;48.938;9.502;2022-12-18T16:10:31;67.90;;;22.25;;
60969;SDS011;46841;48.938;9.502;2022-12-18T16:12:58;57.92;;;20.83;;
60969;SDS011;46841;48.938;9.502;2022-12-18T16:15:25;62.05;;;22.33;;
60969;SDS011;46841;48.938;9.502;2022-12-18T16:17:50;66.93;;;21.92;;
60969;SDS011;46841;48.938;9.502;2022-12-18T16:20:17;56.70;;;19.83;;
60969;SDS011;46841;48.938;9.502;2022-12-18T16:22:43;65.03;;;22.60;;
60969;SDS011;46841;48.938;9.502;2022-12-18T16:27:40;54.20;;;20.63;;
60969;SDS011;46841;48.938;9.502;2022-12-18T16:30:06;59.83;;;20.88;;